CheckWX is a tool to help pilots better visualize weather data.  It is not intended as a substitute for an official pre-flight weather briefing.

21:45:47 UTC

KMUI TAF
Muir AAF (Fort Indiantown Gap) Airport
Fort Indiantown Gap(Annville), Pennsylvania, USA
TAF KMUI 201900Z 2019/2201 18012KT 9999 FEW120 BKN250 QNH3023INS BECMG 2020/2021 18006KT 9999 SCT050 BKN120 BKN250 QNH3022INS BECMG 2102/2103 15009KT 9999 SCT020 BKN030 OVC075 QNH3019INS BECMG 2105/2106 07006KT 9999 FEW008 BKN020 OVC080 QNH3010INS BECMG 2110/2111 09007KT 4800 -RA BR BKN008 OVC025 QNH3009INS BECMG 2111/2112 VRB06KT 9000 -RA BKN007 OVC010 620609 QNH2976INS TX11/2019Z TN02/2107Z LAST NO AMDS AFT 2105 NEXT 2111

Mar-20@
19:00 UTC

Mar-20 @ 19:00 UTC

Mar-20@
20:00 UTC

Mar-20 @ 20:00 UTC

TAF KMUI 201900Z 2019/2201 18012KT 9999 FEW120 BKN250 QNH3023INS

Expired

Wind
  • 180° at 12 KTS
Cloud Levels
  • Few at 12,000' AGL
  • Broken at 25,000' AGL

Mar-20@
20:00 UTC

Mar-20 @ 20:00 UTC

Mar-21@
02:00 UTC

Mar-21 @ 02:00 UTC

BECMG 2020/2021 18006KT 9999 SCT050 BKN120 BKN250 QNH3022INS

Becoming

Becoming Conditions expected by Wed, Mar 20, 2019 @ 21:00 UTC

Wind
  • 180° at 6 KTS
Cloud Levels
  • Scattered at 5,000' AGL
  • Broken at 12,000' AGL
  • Broken at 25,000' AGL

Mar-21@
02:00 UTC

Mar-21 @ 02:00 UTC

Mar-21@
05:00 UTC

Mar-21 @ 05:00 UTC

BECMG 2102/2103 15009KT 9999 SCT020 BKN030 OVC075 QNH3019INS

Becoming

Becoming Conditions expected by Thu, Mar 21, 2019 @ 03:00 UTC

Wind
  • 150° at 9 KTS
Cloud Levels
  • Scattered at 2,000' AGL
  • Broken at 3,000' AGL
  • Overcast at 7,500' AGL

Mar-21@
05:00 UTC

Mar-21 @ 05:00 UTC

Mar-21@
10:00 UTC

Mar-21 @ 10:00 UTC

BECMG 2105/2106 07006KT 9999 FEW008 BKN020 OVC080 QNH3010INS

Becoming

Becoming Conditions expected by Thu, Mar 21, 2019 @ 06:00 UTC

Wind
  • 070° at 6 KTS
Cloud Levels
  • Few at 800' AGL
  • Broken at 2,000' AGL
  • Overcast at 8,000' AGL

Mar-21@
10:00 UTC

Mar-21 @ 10:00 UTC

Mar-21@
11:00 UTC

Mar-21 @ 11:00 UTC

BECMG 2110/2111 09007KT 4800 -RA BR BKN008 OVC025 QNH3009INS

Becoming

Becoming Conditions expected by Thu, Mar 21, 2019 @ 11:00 UTC

Wind
  • 090° at 7 KTS
Conditions
Light Rain, Mist
Cloud Levels
  • Broken at 800' AGL
  • Overcast at 2,500' AGL

Mar-21@
11:00 UTC

Mar-21 @ 11:00 UTC

Mar-22@
01:00 UTC

Mar-22 @ 01:00 UTC

BECMG 2111/2112 VRB06KT 9000 -RA BKN007 OVC010 620609 QNH2976INS TX11/2019Z TN02/2107Z LAST NO AMDS AFT 2105 NEXT 2111

Becoming

Becoming Conditions expected by Thu, Mar 21, 2019 @ 12:00 UTC

Wind
  • Variable at 6 KTS
Conditions
Light Rain
Cloud Levels
  • Broken at 700' AGL
  • Overcast at 1,000' AGL
Icing
Light icing in cloud expected at 6,000' AGL extending to 15,000' AGL